createdAt,value
2019-01-11T00:01:25.794Z,71.17
2019-01-11T00:06:30.364Z,70.33
2019-01-11T00:11:34.985Z,77.33
2019-01-11T00:16:39.545Z,79.70
2019-01-11T00:21:44.043Z,78.70
2019-01-11T00:26:48.607Z,73.77
2019-01-11T00:31:53.196Z,70.00
2019-01-11T00:36:57.734Z,74.27
2019-01-11T00:42:02.330Z,73.47
2019-01-11T00:47:06.940Z,76.03
2019-01-11T00:52:11.500Z,67.63
2019-01-11T00:57:15.998Z,71.50
2019-01-11T01:02:20.564Z,68.87
2019-01-11T01:07:25.069Z,73.37
2019-01-11T01:12:29.585Z,67.40
2019-01-11T01:17:34.179Z,70.00
2019-01-11T01:22:38.781Z,60.03
2019-01-11T01:27:43.369Z,60.80
2019-01-11T01:32:48.033Z,63.83
2019-01-11T01:37:52.603Z,57.90
2019-01-11T01:42:57.197Z,64.07
2019-01-11T01:48:01.817Z,60.30
2019-01-11T01:53:06.425Z,57.30
2019-01-11T01:58:11.045Z,56.70
2019-01-11T02:03:15.631Z,61.53
2019-01-11T02:08:20.216Z,59.37
2019-01-11T02:13:24.830Z,60.17
2019-01-11T02:18:29.409Z,56.57
2019-01-11T02:23:33.949Z,60.03
2019-01-11T02:28:38.521Z,66.40
2019-01-11T02:33:43.030Z,61.53
2019-01-11T02:38:47.632Z,62.23
2019-01-11T02:43:52.272Z,51.37
2019-01-11T02:48:56.834Z,53.23
2019-01-11T02:54:01.409Z,58.30
2019-01-11T02:59:05.998Z,56.67
2019-01-11T03:04:10.538Z,57.37
2019-01-11T03:09:15.136Z,58.03
2019-01-11T03:14:19.713Z,53.63
2019-01-11T03:19:24.301Z,54.90
2019-01-11T03:24:28.884Z,56.63
2019-01-11T03:29:34.728Z,55.17
2019-01-11T03:34:52.475Z,60.07
2019-01-11T03:39:58.109Z,59.13
2019-01-11T03:45:02.718Z,58.33
2019-01-11T03:50:08.377Z,52.67
2019-01-11T03:55:14.424Z,61.33
2019-01-11T04:00:23.485Z,58.57
2019-01-11T04:05:28.097Z,59.73
2019-01-11T04:10:32.685Z,57.27
2019-01-11T04:15:37.250Z,57.47
2019-01-11T04:20:41.854Z,56.53
2019-01-11T04:25:47.731Z,64.37
2019-01-11T04:30:52.344Z,58.77
2019-01-11T04:35:56.918Z,60.97
2019-01-11T04:41:01.508Z,62.93
2019-01-11T04:46:06.080Z,64.97
2019-01-11T04:51:10.658Z,62.50
2019-01-11T04:56:15.270Z,65.53
2019-01-11T05:01:19.848Z,63.63
2019-01-11T05:06:24.485Z,63.37
2019-01-11T05:11:29.052Z,68.67
2019-01-11T05:16:39.466Z,69.90
2019-01-11T05:21:39.885Z,70.67
2019-01-11T05:26:44.549Z,59.00
2019-01-11T05:31:49.165Z,65.37
2019-01-11T05:36:53.881Z,78.15
2019-01-11T05:41:58.417Z,87.60
2019-01-11T05:47:02.985Z,66.97
2019-01-11T05:52:07.527Z,64.60
2019-01-11T05:57:12.087Z,69.13
2019-01-11T06:02:16.661Z,62.77
2019-01-11T06:07:38.686Z,70.00
2019-01-11T06:12:43.291Z,82.80
2019-01-11T06:17:47.811Z,64.83
2019-01-11T06:22:52.381Z,76.92
2019-01-11T06:27:56.961Z,78.15
2019-01-11T06:33:01.462Z,79.17
2019-01-11T06:38:06.237Z,65.67
2019-01-11T06:43:10.757Z,61.50
2019-01-11T06:48:22.317Z,63.73
2019-01-11T06:53:26.807Z,56.77
2019-01-11T06:58:31.382Z,57.50
2019-01-11T07:03:36.025Z,62.50
2019-01-11T07:08:40.574Z,62.03
2019-01-11T07:13:45.189Z,60.63
2019-01-11T07:18:49.786Z,68.77
2019-01-11T07:23:54.371Z,76.42
2019-01-11T07:28:58.966Z,61.27
2019-01-11T07:34:03.529Z,64.53
2019-01-11T07:39:31.446Z,57.53
2019-01-11T07:44:36.037Z,60.50
2019-01-11T07:49:40.611Z,56.13
2019-01-11T07:54:45.204Z,58.90
2019-01-11T07:59:49.779Z,55.47
2019-01-11T08:04:54.351Z,56.60
2019-01-11T08:09:58.950Z,57.47
2019-01-11T08:15:03.568Z,60.05
2019-01-11T08:20:08.459Z,64.20
2019-01-11T08:25:13.867Z,52.20
2019-01-11T08:30:18.535Z,51.57
2019-01-11T08:35:23.122Z,59.37
2019-01-11T08:40:27.724Z,51.93
2019-01-11T08:45:32.311Z,53.27
2019-01-11T08:50:36.901Z,65.53
2019-01-11T08:55:41.552Z,51.53
2019-01-11T09:00:46.683Z,44.27
2019-01-11T09:05:51.253Z,52.97
2019-01-11T09:10:55.857Z,51.07
2019-01-11T09:16:00.470Z,47.23
2019-01-11T09:21:09.406Z,55.57
2019-01-11T09:26:11.353Z,51.50
2019-01-11T09:31:16.013Z,47.97
2019-01-11T09:36:20.611Z,45.57
2019-01-11T09:41:25.192Z,51.83
2019-01-11T09:46:29.814Z,44.97
2019-01-11T09:51:34.386Z,48.10
2019-01-11T09:56:39.003Z,51.83
2019-01-11T10:01:45.089Z,63.93
2019-01-11T10:07:07.023Z,68.50
2019-01-11T10:12:11.592Z,70.20
2019-01-11T10:17:16.124Z,82.17
2019-01-11T10:22:20.726Z,58.07
2019-01-11T10:27:25.316Z,69.77
2019-01-11T10:32:29.874Z,50.67
2019-01-11T10:37:34.495Z,52.20
2019-01-11T10:42:39.687Z,54.90
2019-01-11T10:47:44.336Z,54.87
2019-01-11T10:52:48.828Z,54.00
2019-01-11T10:57:53.521Z,54.93
2019-01-11T11:02:58.652Z,60.03
2019-01-11T11:08:03.300Z,60.87
2019-01-11T11:13:07.897Z,57.93
2019-01-11T11:18:12.493Z,58.13
2019-01-11T11:23:17.141Z,67.63
2019-01-11T11:28:21.721Z,54.20
2019-01-11T11:33:26.340Z,56.30
2019-01-11T11:38:30.937Z,54.83
2019-01-11T11:43:35.574Z,54.00
2019-01-11T11:48:40.160Z,72.87
2019-01-11T11:53:44.744Z,49.90
2019-01-11T11:58:49.318Z,50.70
2019-01-11T12:03:53.805Z,53.07
2019-01-11T12:08:58.363Z,52.60
2019-01-11T12:14:02.983Z,49.37
2019-01-11T12:19:07.554Z,47.73
2019-01-11T12:24:12.078Z,58.53
2019-01-11T12:29:16.857Z,55.20
2019-01-11T12:34:21.515Z,51.87
2019-01-11T12:39:26.110Z,48.70
2019-01-11T12:44:30.687Z,56.83
2019-01-11T12:49:35.288Z,51.10
2019-01-11T12:54:39.917Z,42.57
2019-01-11T12:59:44.532Z,54.47
2019-01-11T13:04:49.191Z,40.27
2019-01-11T13:09:53.735Z,41.20
2019-01-11T13:14:58.321Z,41.33
2019-01-11T13:20:02.888Z,40.63
2019-01-11T13:25:07.838Z,34.90
2019-01-11T13:30:14.579Z,35.07
2019-01-11T13:35:19.270Z,38.80
2019-01-11T13:40:25.319Z,46.87
2019-01-11T13:45:30.135Z,42.00
2019-01-11T13:50:36.483Z,38.93
2019-01-11T13:55:41.042Z,30.03
2019-01-11T14:00:45.592Z,34.73
2019-01-11T14:05:50.169Z,42.17
2019-01-11T14:10:54.818Z,33.87
2019-01-11T14:15:59.518Z,40.43
2019-01-11T14:21:04.213Z,35.07
2019-01-11T14:26:08.809Z,28.90
2019-01-11T14:31:13.461Z,29.93
2019-01-11T14:36:17.980Z,33.57
2019-01-11T14:41:23.153Z,39.53
2019-01-11T14:46:27.708Z,44.40
2019-01-11T14:51:32.314Z,34.20
2019-01-11T14:56:36.900Z,34.17
2019-01-11T15:01:41.492Z,39.20
2019-01-11T15:06:46.061Z,35.03
2019-01-11T15:11:50.680Z,41.60
2019-01-11T15:16:55.185Z,39.97
2019-01-11T15:21:59.788Z,42.03
2019-01-11T15:27:04.491Z,38.07
2019-01-11T15:32:09.061Z,39.20
2019-01-11T15:37:13.657Z,34.13
2019-01-11T15:42:18.192Z,38.23
2019-01-11T15:47:22.757Z,34.20
2019-01-11T15:52:33.088Z,39.23
2019-01-11T15:57:42.689Z,35.10
2019-01-11T16:02:47.353Z,39.47
2019-01-11T16:07:51.936Z,43.78
2019-01-11T16:13:24.247Z,45.50
2019-01-11T16:18:30.767Z,38.57
2019-01-11T16:23:35.393Z,38.97
2019-01-11T16:28:39.969Z,39.47
2019-01-11T16:33:44.566Z,46.10
2019-01-11T16:38:49.143Z,47.43
2019-01-11T16:43:53.750Z,49.37
2019-01-11T16:48:58.286Z,46.73
2019-01-11T16:54:02.882Z,48.45
2019-01-11T16:59:07.573Z,41.37
2019-01-11T17:04:12.171Z,42.13
2019-01-11T17:09:16.777Z,43.60
2019-01-11T17:14:21.337Z,46.43
2019-01-11T17:19:25.943Z,52.67
2019-01-11T17:24:30.522Z,41.33
2019-01-11T17:29:35.100Z,52.65
2019-01-11T17:34:39.614Z,51.83
2019-01-11T17:39:44.246Z,48.73
2019-01-11T17:44:48.804Z,53.85
2019-01-11T17:49:53.427Z,50.10
2019-01-11T17:54:58.039Z,49.00
2019-01-11T18:00:02.750Z,54.43
2019-01-11T18:05:08.868Z,50.80
2019-01-11T18:10:14.101Z,46.13
2019-01-11T18:15:21.027Z,45.60
2019-01-11T18:20:27.937Z,52.70
2019-01-11T18:25:32.516Z,57.67
2019-01-11T18:30:37.090Z,65.40
2019-01-11T18:35:41.696Z,67.73
2019-01-11T18:40:46.308Z,58.40
2019-01-11T18:45:50.923Z,56.10
2019-01-11T18:50:55.604Z,49.50
2019-01-11T18:56:05.398Z,51.37
2019-01-11T19:01:06.443Z,44.60
2019-01-11T19:06:11.035Z,53.40
2019-01-11T19:11:15.643Z,53.63
2019-01-11T19:16:20.305Z,42.60
2019-01-11T19:21:24.981Z,38.90
2019-01-11T19:26:29.497Z,42.63
2019-01-11T19:31:34.066Z,47.37
2019-01-11T19:36:38.722Z,37.60
2019-01-11T19:41:43.362Z,37.83
2019-01-11T19:46:47.951Z,37.43
2019-01-11T19:51:52.567Z,34.07
2019-01-11T19:56:57.127Z,38.53
2019-01-11T20:02:01.757Z,32.33
2019-01-11T20:07:06.483Z,42.03
2019-01-11T20:12:11.087Z,42.43
2019-01-11T20:17:15.736Z,29.87
2019-01-11T20:22:20.410Z,37.38
2019-01-11T20:27:25.005Z,34.88
2019-01-11T20:32:29.538Z,33.27
2019-01-11T20:37:34.671Z,34.33
2019-01-11T20:42:39.295Z,30.80
2019-01-11T20:47:43.878Z,30.63
2019-01-11T20:52:48.501Z,26.57
2019-01-11T20:57:53.367Z,24.37
2019-01-11T21:02:57.933Z,29.13
2019-01-11T21:08:02.437Z,28.40
2019-01-11T21:13:07.361Z,30.23
2019-01-11T21:18:12.183Z,26.57
2019-01-11T21:23:16.686Z,29.07
2019-01-11T21:28:21.195Z,23.87
2019-01-11T21:33:25.775Z,32.93
2019-01-11T21:38:30.377Z,25.30
2019-01-11T21:43:34.981Z,23.27
2019-01-11T21:48:39.604Z,22.77
2019-01-11T21:53:44.270Z,30.20
2019-01-11T21:58:48.838Z,20.70
2019-01-11T22:03:53.395Z,22.97
2019-01-11T22:08:58.034Z,22.53
2019-01-11T22:14:02.763Z,21.85
2019-01-11T22:19:07.384Z,24.32
2019-01-11T22:24:11.982Z,20.27
2019-01-11T22:29:16.597Z,18.83
2019-01-11T22:34:21.198Z,17.37
2019-01-11T22:39:25.774Z,15.57
2019-01-11T22:44:30.373Z,19.37
2019-01-11T22:49:34.992Z,17.37
2019-01-11T22:54:39.602Z,18.40
2019-01-11T22:59:44.210Z,24.27
2019-01-11T23:04:48.806Z,16.47
2019-01-11T23:10:05.835Z,16.33
2019-01-11T23:15:14.633Z,17.80
2019-01-11T23:20:19.181Z,19.70
2019-01-11T23:25:23.747Z,18.90
2019-01-11T23:30:28.267Z,15.67
2019-01-11T23:35:32.813Z,17.00
2019-01-11T23:40:37.381Z,19.40
2019-01-11T23:45:41.911Z,14.60
2019-01-11T23:50:46.668Z,22.07
2019-01-11T23:55:51.196Z,15.07
